sensor_id;sensor_type;location;lat;lon;timestamp;P1;durP1;ratioP1;P2;durP2;ratioP2
15102;SDS011;7652;53.584;9.998;2023-06-05T00:00:49;3.60;;;2.30;;
15102;SDS011;7652;53.584;9.998;2023-06-05T00:04:10;5.73;;;2.90;;
15102;SDS011;7652;53.584;9.998;2023-06-05T00:07:32;3.13;;;2.30;;
15102;SDS011;7652;53.584;9.998;2023-06-05T00:10:54;3.67;;;2.63;;
15102;SDS011;7652;53.584;9.998;2023-06-05T00:14:16;5.97;;;3.13;;
15102;SDS011;7652;53.584;9.998;2023-06-05T00:17:37;5.00;;;2.90;;
15102;SDS011;7652;53.584;9.998;2023-06-05T00:20:59;4.13;;;3.07;;
15102;SDS011;7652;53.584;9.998;2023-06-05T00:24:21;4.20;;;3.00;;
15102;SDS011;7652;53.584;9.998;2023-06-05T00:27:43;3.00;;;2.70;;
15102;SDS011;7652;53.584;9.998;2023-06-05T00:31:05;5.37;;;2.53;;
15102;SDS011;7652;53.584;9.998;2023-06-05T00:34:27;3.60;;;2.80;;
15102;SDS011;7652;53.584;9.998;2023-06-05T00:37:49;5.00;;;3.10;;
15102;SDS011;7652;53.584;9.998;2023-06-05T00:41:10;4.37;;;2.87;;
15102;SDS011;7652;53.584;9.998;2023-06-05T00:44:33;6.47;;;3.20;;
15102;SDS011;7652;53.584;9.998;2023-06-05T00:47:55;5.93;;;3.10;;
15102;SDS011;7652;53.584;9.998;2023-06-05T00:51:16;4.53;;;3.30;;
15102;SDS011;7652;53.584;9.998;2023-06-05T00:54:38;4.07;;;3.53;;
15102;SDS011;7652;53.584;9.998;2023-06-05T00:58:01;5.50;;;3.33;;
15102;SDS011;7652;53.584;9.998;2023-06-05T01:01:25;4.53;;;2.87;;
15102;SDS011;7652;53.584;9.998;2023-06-05T01:04:48;7.20;;;3.70;;
15102;SDS011;7652;53.584;9.998;2023-06-05T01:08:10;3.77;;;2.93;;
15102;SDS011;7652;53.584;9.998;2023-06-05T01:11:32;6.00;;;3.17;;
15102;SDS011;7652;53.584;9.998;2023-06-05T01:15:00;5.40;;;3.30;;
15102;SDS011;7652;53.584;9.998;2023-06-05T01:18:26;5.20;;;3.00;;
15102;SDS011;7652;53.584;9.998;2023-06-05T01:21:48;6.13;;;3.80;;
15102;SDS011;7652;53.584;9.998;2023-06-05T01:25:11;6.60;;;3.33;;
15102;SDS011;7652;53.584;9.998;2023-06-05T01:28:32;6.40;;;3.10;;
15102;SDS011;7652;53.584;9.998;2023-06-05T01:31:55;4.57;;;3.13;;
15102;SDS011;7652;53.584;9.998;2023-06-05T01:35:21;6.20;;;3.53;;
15102;SDS011;7652;53.584;9.998;2023-06-05T01:38:48;5.47;;;3.77;;
15102;SDS011;7652;53.584;9.998;2023-06-05T01:42:12;4.83;;;3.70;;
15102;SDS011;7652;53.584;9.998;2023-06-05T01:45:35;6.03;;;3.77;;
15102;SDS011;7652;53.584;9.998;2023-06-05T01:48:59;5.17;;;3.93;;
15102;SDS011;7652;53.584;9.998;2023-06-05T01:52:22;5.20;;;3.87;;
15102;SDS011;7652;53.584;9.998;2023-06-05T01:55:43;5.30;;;3.33;;
15102;SDS011;7652;53.584;9.998;2023-06-05T01:59:08;5.33;;;3.77;;
15102;SDS011;7652;53.584;9.998;2023-06-05T02:02:29;5.60;;;3.43;;
15102;SDS011;7652;53.584;9.998;2023-06-05T02:05:50;5.30;;;3.93;;
15102;SDS011;7652;53.584;9.998;2023-06-05T02:09:12;5.00;;;3.80;;
15102;SDS011;7652;53.584;9.998;2023-06-05T02:12:34;5.40;;;3.53;;
15102;SDS011;7652;53.584;9.998;2023-06-05T02:15:58;5.87;;;3.97;;
15102;SDS011;7652;53.584;9.998;2023-06-05T02:19:20;5.43;;;3.83;;
15102;SDS011;7652;53.584;9.998;2023-06-05T02:22:41;6.97;;;3.93;;
15102;SDS011;7652;53.584;9.998;2023-06-05T02:26:04;5.73;;;3.70;;
15102;SDS011;7652;53.584;9.998;2023-06-05T02:29:25;4.60;;;3.73;;
15102;SDS011;7652;53.584;9.998;2023-06-05T02:32:49;5.90;;;4.67;;
15102;SDS011;7652;53.584;9.998;2023-06-05T02:36:16;7.13;;;3.87;;
15102;SDS011;7652;53.584;9.998;2023-06-05T02:39:38;9.27;;;4.40;;
15102;SDS011;7652;53.584;9.998;2023-06-05T02:42:59;6.83;;;3.93;;
15102;SDS011;7652;53.584;9.998;2023-06-05T02:46:21;7.27;;;4.97;;
15102;SDS011;7652;53.584;9.998;2023-06-05T02:49:45;7.30;;;4.43;;
15102;SDS011;7652;53.584;9.998;2023-06-05T02:53:07;7.73;;;4.63;;
15102;SDS011;7652;53.584;9.998;2023-06-05T02:56:28;5.67;;;4.23;;
15102;SDS011;7652;53.584;9.998;2023-06-05T02:59:49;5.60;;;4.17;;
15102;SDS011;7652;53.584;9.998;2023-06-05T03:03:11;8.20;;;4.40;;
15102;SDS011;7652;53.584;9.998;2023-06-05T03:06:34;6.63;;;4.53;;
15102;SDS011;7652;53.584;9.998;2023-06-05T03:09:55;5.63;;;4.30;;
15102;SDS011;7652;53.584;9.998;2023-06-05T03:13:17;5.30;;;4.27;;
15102;SDS011;7652;53.584;9.998;2023-06-05T03:16:38;5.57;;;4.37;;
15102;SDS011;7652;53.584;9.998;2023-06-05T03:20:02;5.73;;;3.97;;
15102;SDS011;7652;53.584;9.998;2023-06-05T03:23:28;6.27;;;4.20;;
15102;SDS011;7652;53.584;9.998;2023-06-05T03:26:49;5.63;;;4.17;;
15102;SDS011;7652;53.584;9.998;2023-06-05T03:30:11;6.37;;;4.47;;
15102;SDS011;7652;53.584;9.998;2023-06-05T03:33:36;7.10;;;4.50;;
15102;SDS011;7652;53.584;9.998;2023-06-05T03:36:58;6.10;;;4.30;;
15102;SDS011;7652;53.584;9.998;2023-06-05T03:40:21;5.40;;;4.83;;
15102;SDS011;7652;53.584;9.998;2023-06-05T03:43:42;6.20;;;4.60;;
15102;SDS011;7652;53.584;9.998;2023-06-05T03:47:04;5.93;;;4.97;;
15102;SDS011;7652;53.584;9.998;2023-06-05T03:50:28;5.70;;;4.77;;
15102;SDS011;7652;53.584;9.998;2023-06-05T03:53:50;5.80;;;4.83;;
15102;SDS011;7652;53.584;9.998;2023-06-05T03:57:16;9.57;;;5.27;;
15102;SDS011;7652;53.584;9.998;2023-06-05T04:00:39;10.67;;;5.33;;
15102;SDS011;7652;53.584;9.998;2023-06-05T04:04:02;5.83;;;5.20;;
15102;SDS011;7652;53.584;9.998;2023-06-05T04:07:25;8.07;;;5.30;;
15102;SDS011;7652;53.584;9.998;2023-06-05T04:10:46;8.40;;;5.90;;
15102;SDS011;7652;53.584;9.998;2023-06-05T04:14:09;5.50;;;4.93;;
15102;SDS011;7652;53.584;9.998;2023-06-05T04:17:30;6.90;;;4.87;;
15102;SDS011;7652;53.584;9.998;2023-06-05T04:20:52;7.03;;;5.00;;
15102;SDS011;7652;53.584;9.998;2023-06-05T04:24:13;9.00;;;5.37;;
15102;SDS011;7652;53.584;9.998;2023-06-05T04:27:35;7.00;;;5.37;;
15102;SDS011;7652;53.584;9.998;2023-06-05T04:30:57;9.47;;;5.47;;
15102;SDS011;7652;53.584;9.998;2023-06-05T04:34:19;10.63;;;6.13;;
15102;SDS011;7652;53.584;9.998;2023-06-05T04:37:40;8.03;;;5.57;;
15102;SDS011;7652;53.584;9.998;2023-06-05T04:41:02;7.70;;;5.30;;
15102;SDS011;7652;53.584;9.998;2023-06-05T04:44:23;9.77;;;6.60;;
15102;SDS011;7652;53.584;9.998;2023-06-05T04:47:46;7.30;;;6.10;;
15102;SDS011;7652;53.584;9.998;2023-06-05T04:51:07;11.83;;;6.37;;
15102;SDS011;7652;53.584;9.998;2023-06-05T04:54:30;7.40;;;6.30;;
15102;SDS011;7652;53.584;9.998;2023-06-05T04:57:51;7.53;;;6.17;;
15102;SDS011;7652;53.584;9.998;2023-06-05T05:01:12;8.80;;;6.40;;
15102;SDS011;7652;53.584;9.998;2023-06-05T05:04:37;9.20;;;6.67;;
15102;SDS011;7652;53.584;9.998;2023-06-05T05:07:59;8.30;;;6.43;;
15102;SDS011;7652;53.584;9.998;2023-06-05T05:11:21;9.40;;;6.43;;
15102;SDS011;7652;53.584;9.998;2023-06-05T05:14:42;10.83;;;6.67;;
15102;SDS011;7652;53.584;9.998;2023-06-05T05:18:04;8.60;;;6.10;;
15102;SDS011;7652;53.584;9.998;2023-06-05T05:21:28;8.77;;;6.23;;
15102;SDS011;7652;53.584;9.998;2023-06-05T05:24:50;7.40;;;6.37;;
15102;SDS011;7652;53.584;9.998;2023-06-05T05:28:11;7.40;;;5.33;;
15102;SDS011;7652;53.584;9.998;2023-06-05T05:31:33;11.20;;;6.83;;
15102;SDS011;7652;53.584;9.998;2023-06-05T05:34:55;8.17;;;6.17;;
15102;SDS011;7652;53.584;9.998;2023-06-05T05:38:17;10.73;;;6.20;;
15102;SDS011;7652;53.584;9.998;2023-06-05T05:41:39;8.70;;;6.33;;
15102;SDS011;7652;53.584;9.998;2023-06-05T05:45:00;8.07;;;5.60;;
15102;SDS011;7652;53.584;9.998;2023-06-05T05:48:22;8.77;;;6.27;;
15102;SDS011;7652;53.584;9.998;2023-06-05T05:51:43;11.43;;;6.47;;
15102;SDS011;7652;53.584;9.998;2023-06-05T05:55:07;7.37;;;6.00;;
15102;SDS011;7652;53.584;9.998;2023-06-05T05:58:30;9.30;;;5.93;;
15102;SDS011;7652;53.584;9.998;2023-06-05T06:01:52;8.90;;;5.33;;
15102;SDS011;7652;53.584;9.998;2023-06-05T06:05:14;8.10;;;5.67;;
15102;SDS011;7652;53.584;9.998;2023-06-05T06:08:35;9.17;;;5.97;;
15102;SDS011;7652;53.584;9.998;2023-06-05T06:11:58;5.97;;;5.00;;
15102;SDS011;7652;53.584;9.998;2023-06-05T06:15:22;5.57;;;4.90;;
15102;SDS011;7652;53.584;9.998;2023-06-05T06:18:44;8.00;;;5.40;;
15102;SDS011;7652;53.584;9.998;2023-06-05T06:22:06;8.73;;;4.83;;
15102;SDS011;7652;53.584;9.998;2023-06-05T06:25:32;8.10;;;4.70;;
15102;SDS011;7652;53.584;9.998;2023-06-05T06:28:54;7.43;;;4.80;;
15102;SDS011;7652;53.584;9.998;2023-06-05T06:32:17;9.20;;;4.83;;
15102;SDS011;7652;53.584;9.998;2023-06-05T06:35:39;7.93;;;4.67;;
15102;SDS011;7652;53.584;9.998;2023-06-05T06:39:01;6.73;;;4.00;;
15102;SDS011;7652;53.584;9.998;2023-06-05T06:42:23;7.33;;;4.40;;
15102;SDS011;7652;53.584;9.998;2023-06-05T06:45:48;8.33;;;4.80;;
15102;SDS011;7652;53.584;9.998;2023-06-05T06:49:09;7.90;;;4.00;;
15102;SDS011;7652;53.584;9.998;2023-06-05T06:52:31;7.93;;;4.10;;
15102;SDS011;7652;53.584;9.998;2023-06-05T06:55:52;8.43;;;3.67;;
15102;SDS011;7652;53.584;9.998;2023-06-05T06:59:14;4.80;;;3.10;;
15102;SDS011;7652;53.584;9.998;2023-06-05T07:02:39;3.90;;;3.30;;
15102;SDS011;7652;53.584;9.998;2023-06-05T07:06:01;5.00;;;3.60;;
15102;SDS011;7652;53.584;9.998;2023-06-05T07:09:23;4.83;;;3.40;;
15102;SDS011;7652;53.584;9.998;2023-06-05T07:12:44;4.20;;;3.10;;
15102;SDS011;7652;53.584;9.998;2023-06-05T07:16:05;3.63;;;3.33;;
15102;SDS011;7652;53.584;9.998;2023-06-05T07:19:29;7.53;;;3.60;;
15102;SDS011;7652;53.584;9.998;2023-06-05T07:22:51;6.50;;;3.37;;
15102;SDS011;7652;53.584;9.998;2023-06-05T07:26:12;3.63;;;2.77;;
15102;SDS011;7652;53.584;9.998;2023-06-05T07:29:35;4.73;;;3.00;;
15102;SDS011;7652;53.584;9.998;2023-06-05T07:32:57;5.27;;;3.40;;
15102;SDS011;7652;53.584;9.998;2023-06-05T07:36:21;3.87;;;3.20;;
15102;SDS011;7652;53.584;9.998;2023-06-05T07:39:43;6.47;;;2.97;;
15102;SDS011;7652;53.584;9.998;2023-06-05T07:43:04;7.23;;;3.00;;
15102;SDS011;7652;53.584;9.998;2023-06-05T07:46:26;4.80;;;2.83;;
15102;SDS011;7652;53.584;9.998;2023-06-05T07:49:56;3.67;;;2.33;;
15102;SDS011;7652;53.584;9.998;2023-06-05T07:53:20;2.97;;;2.30;;
15102;SDS011;7652;53.584;9.998;2023-06-05T07:56:42;4.00;;;2.47;;
15102;SDS011;7652;53.584;9.998;2023-06-05T08:00:04;4.27;;;2.87;;
15102;SDS011;7652;53.584;9.998;2023-06-05T08:03:30;4.37;;;2.53;;
15102;SDS011;7652;53.584;9.998;2023-06-05T08:06:52;4.00;;;2.30;;
15102;SDS011;7652;53.584;9.998;2023-06-05T08:10:15;3.40;;;2.40;;
15102;SDS011;7652;53.584;9.998;2023-06-05T08:13:36;6.17;;;2.80;;
15102;SDS011;7652;53.584;9.998;2023-06-05T08:16:58;3.73;;;2.20;;
15102;SDS011;7652;53.584;9.998;2023-06-05T08:20:20;2.70;;;2.00;;
15102;SDS011;7652;53.584;9.998;2023-06-05T08:23:42;6.57;;;2.57;;
15102;SDS011;7652;53.584;9.998;2023-06-05T08:27:06;4.23;;;2.43;;
15102;SDS011;7652;53.584;9.998;2023-06-05T08:30:28;3.00;;;2.20;;
15102;SDS011;7652;53.584;9.998;2023-06-05T08:33:49;4.43;;;2.13;;
15102;SDS011;7652;53.584;9.998;2023-06-05T08:37:11;4.60;;;2.47;;
15102;SDS011;7652;53.584;9.998;2023-06-05T08:40:33;5.43;;;2.27;;
15102;SDS011;7652;53.584;9.998;2023-06-05T08:43:57;2.60;;;2.20;;
15102;SDS011;7652;53.584;9.998;2023-06-05T08:47:19;4.97;;;2.00;;
15102;SDS011;7652;53.584;9.998;2023-06-05T08:50:44;2.40;;;2.20;;
15102;SDS011;7652;53.584;9.998;2023-06-05T08:54:06;3.07;;;2.47;;
15102;SDS011;7652;53.584;9.998;2023-06-05T08:57:33;3.03;;;2.20;;
15102;SDS011;7652;53.584;9.998;2023-06-05T09:00:58;3.50;;;1.90;;
15102;SDS011;7652;53.584;9.998;2023-06-05T09:04:21;2.83;;;2.17;;
15102;SDS011;7652;53.584;9.998;2023-06-05T09:07:46;2.73;;;2.10;;
15102;SDS011;7652;53.584;9.998;2023-06-05T09:11:21;3.20;;;2.03;;
15102;SDS011;7652;53.584;9.998;2023-06-05T09:14:43;3.87;;;2.00;;
15102;SDS011;7652;53.584;9.998;2023-06-05T09:18:09;3.20;;;1.90;;
15102;SDS011;7652;53.584;9.998;2023-06-05T09:21:32;4.07;;;1.97;;
15102;SDS011;7652;53.584;9.998;2023-06-05T09:24:56;3.83;;;2.00;;
15102;SDS011;7652;53.584;9.998;2023-06-05T09:28:17;4.50;;;2.10;;
15102;SDS011;7652;53.584;9.998;2023-06-05T09:31:40;3.97;;;2.20;;
15102;SDS011;7652;53.584;9.998;2023-06-05T09:35:04;2.50;;;1.87;;
15102;SDS011;7652;53.584;9.998;2023-06-05T09:38:26;3.80;;;1.83;;
15102;SDS011;7652;53.584;9.998;2023-06-05T09:41:48;3.37;;;2.00;;
15102;SDS011;7652;53.584;9.998;2023-06-05T09:45:11;3.03;;;2.20;;
15102;SDS011;7652;53.584;9.998;2023-06-05T09:48:33;3.40;;;2.30;;
15102;SDS011;7652;53.584;9.998;2023-06-05T09:51:56;2.60;;;2.10;;
15102;SDS011;7652;53.584;9.998;2023-06-05T09:55:19;2.90;;;2.13;;
15102;SDS011;7652;53.584;9.998;2023-06-05T09:58:43;3.23;;;2.27;;
15102;SDS011;7652;53.584;9.998;2023-06-05T10:02:06;3.17;;;2.43;;
15102;SDS011;7652;53.584;9.998;2023-06-05T10:05:28;2.63;;;2.20;;
15102;SDS011;7652;53.584;9.998;2023-06-05T10:08:52;4.47;;;2.27;;
15102;SDS011;7652;53.584;9.998;2023-06-05T10:12:15;3.43;;;2.30;;
15102;SDS011;7652;53.584;9.998;2023-06-05T10:15:38;3.27;;;1.87;;
15102;SDS011;7652;53.584;9.998;2023-06-05T10:19:04;3.07;;;1.90;;
15102;SDS011;7652;53.584;9.998;2023-06-05T10:22:28;3.60;;;2.40;;
15102;SDS011;7652;53.584;9.998;2023-06-05T10:25:52;4.33;;;2.60;;
15102;SDS011;7652;53.584;9.998;2023-06-05T10:29:18;2.93;;;2.20;;
15102;SDS011;7652;53.584;9.998;2023-06-05T10:32:57;2.87;;;2.13;;
15102;SDS011;7652;53.584;9.998;2023-06-05T10:36:33;3.10;;;1.93;;
15102;SDS011;7652;53.584;9.998;2023-06-05T10:40:05;2.90;;;2.20;;
15102;SDS011;7652;53.584;9.998;2023-06-05T10:43:31;2.10;;;1.87;;
15102;SDS011;7652;53.584;9.998;2023-06-05T10:46:53;3.47;;;2.10;;
15102;SDS011;7652;53.584;9.998;2023-06-05T10:50:19;2.40;;;1.90;;
15102;SDS011;7652;53.584;9.998;2023-06-05T10:53:51;2.47;;;1.63;;
15102;SDS011;7652;53.584;9.998;2023-06-05T10:57:12;3.57;;;2.30;;
15102;SDS011;7652;53.584;9.998;2023-06-05T11:00:35;2.77;;;1.83;;
15102;SDS011;7652;53.584;9.998;2023-06-05T11:03:58;3.30;;;2.00;;
15102;SDS011;7652;53.584;9.998;2023-06-05T11:07:21;3.90;;;2.10;;
15102;SDS011;7652;53.584;9.998;2023-06-05T11:11:01;3.30;;;2.00;;
15102;SDS011;7652;53.584;9.998;2023-06-05T11:14:24;2.10;;;1.43;;
15102;SDS011;7652;53.584;9.998;2023-06-05T11:22:07;2.43;;;2.10;;
15102;SDS011;7652;53.584;9.998;2023-06-05T11:25:29;3.53;;;2.80;;
15102;SDS011;7652;53.584;9.998;2023-06-05T11:28:52;2.20;;;2.00;;
15102;SDS011;7652;53.584;9.998;2023-06-05T11:32:14;1.83;;;1.70;;
15102;SDS011;7652;53.584;9.998;2023-06-05T11:35:37;2.70;;;1.73;;
15102;SDS011;7652;53.584;9.998;2023-06-05T11:38:59;3.20;;;1.70;;
15102;SDS011;7652;53.584;9.998;2023-06-05T11:42:21;3.47;;;1.87;;
15102;SDS011;7652;53.584;9.998;2023-06-05T11:45:48;3.80;;;2.20;;
15102;SDS011;7652;53.584;9.998;2023-06-05T11:49:22;2.57;;;1.80;;
15102;SDS011;7652;53.584;9.998;2023-06-05T11:52:47;2.67;;;1.60;;
15102;SDS011;7652;53.584;9.998;2023-06-05T11:56:11;1.90;;;1.70;;
15102;SDS011;7652;53.584;9.998;2023-06-05T11:59:36;2.87;;;2.10;;
15102;SDS011;7652;53.584;9.998;2023-06-05T12:02:58;2.50;;;1.70;;
15102;SDS011;7652;53.584;9.998;2023-06-05T12:06:20;4.00;;;2.00;;
15102;SDS011;7652;53.584;9.998;2023-06-05T12:09:51;2.50;;;2.10;;
15102;SDS011;7652;53.584;9.998;2023-06-05T12:13:12;4.77;;;1.80;;
15102;SDS011;7652;53.584;9.998;2023-06-05T12:16:36;3.37;;;1.80;;
15102;SDS011;7652;53.584;9.998;2023-06-05T12:19:58;2.37;;;1.80;;
15102;SDS011;7652;53.584;9.998;2023-06-05T12:23:19;2.47;;;1.80;;
15102;SDS011;7652;53.584;9.998;2023-06-05T12:26:51;2.70;;;1.67;;
15102;SDS011;7652;53.584;9.998;2023-06-05T12:30:14;1.73;;;1.63;;
15102;SDS011;7652;53.584;9.998;2023-06-05T12:33:46;2.17;;;1.97;;
15102;SDS011;7652;53.584;9.998;2023-06-05T12:37:08;2.30;;;1.83;;
15102;SDS011;7652;53.584;9.998;2023-06-05T12:40:30;2.10;;;1.90;;
15102;SDS011;7652;53.584;9.998;2023-06-05T12:44:02;2.63;;;1.92;;
15102;SDS011;7652;53.584;9.998;2023-06-05T12:47:25;1.90;;;1.80;;
15102;SDS011;7652;53.584;9.998;2023-06-05T12:50:46;3.42;;;1.98;;
15102;SDS011;7652;53.584;9.998;2023-06-05T12:54:09;1.80;;;1.70;;
15102;SDS011;7652;53.584;9.998;2023-06-05T12:57:31;2.47;;;1.75;;
15102;SDS011;7652;53.584;9.998;2023-06-05T13:00:55;2.88;;;1.85;;
15102;SDS011;7652;53.584;9.998;2023-06-05T13:04:16;2.43;;;1.90;;
15102;SDS011;7652;53.584;9.998;2023-06-05T13:07:38;3.13;;;2.00;;
15102;SDS011;7652;53.584;9.998;2023-06-05T13:10:59;3.97;;;2.07;;
15102;SDS011;7652;53.584;9.998;2023-06-05T13:14:24;3.20;;;1.87;;
15102;SDS011;7652;53.584;9.998;2023-06-05T13:17:47;2.00;;;1.80;;
15102;SDS011;7652;53.584;9.998;2023-06-05T13:21:09;3.00;;;1.90;;
15102;SDS011;7652;53.584;9.998;2023-06-05T13:24:31;1.67;;;1.57;;
15102;SDS011;7652;53.584;9.998;2023-06-05T13:27:53;3.53;;;1.87;;
15102;SDS011;7652;53.584;9.998;2023-06-05T13:31:14;2.53;;;1.90;;
15102;SDS011;7652;53.584;9.998;2023-06-05T13:34:38;2.67;;;1.80;;
15102;SDS011;7652;53.584;9.998;2023-06-05T13:37:59;3.30;;;2.07;;
15102;SDS011;7652;53.584;9.998;2023-06-05T13:41:20;3.93;;;1.80;;
15102;SDS011;7652;53.584;9.998;2023-06-05T13:44:42;3.07;;;1.73;;
15102;SDS011;7652;53.584;9.998;2023-06-05T13:48:03;2.40;;;1.67;;
15102;SDS011;7652;53.584;9.998;2023-06-05T13:51:26;2.70;;;1.80;;
15102;SDS011;7652;53.584;9.998;2023-06-05T13:54:48;3.53;;;2.30;;
15102;SDS011;7652;53.584;9.998;2023-06-05T13:58:09;2.50;;;1.80;;
15102;SDS011;7652;53.584;9.998;2023-06-05T14:01:31;1.93;;;1.73;;
15102;SDS011;7652;53.584;9.998;2023-06-05T14:04:52;2.20;;;2.00;;
15102;SDS011;7652;53.584;9.998;2023-06-05T14:08:15;2.10;;;1.90;;
15102;SDS011;7652;53.584;9.998;2023-06-05T14:11:37;2.73;;;2.10;;
15102;SDS011;7652;53.584;9.998;2023-06-05T14:15:04;2.80;;;2.07;;
15102;SDS011;7652;53.584;9.998;2023-06-05T14:18:26;2.03;;;1.83;;
15102;SDS011;7652;53.584;9.998;2023-06-05T14:21:47;3.47;;;2.17;;
15102;SDS011;7652;53.584;9.998;2023-06-05T14:25:11;2.67;;;1.70;;
15102;SDS011;7652;53.584;9.998;2023-06-05T14:28:32;2.93;;;1.87;;
15102;SDS011;7652;53.584;9.998;2023-06-05T14:31:53;3.33;;;2.10;;
15102;SDS011;7652;53.584;9.998;2023-06-05T14:35:15;3.13;;;2.30;;
15102;SDS011;7652;53.584;9.998;2023-06-05T14:38:39;3.70;;;1.80;;
15102;SDS011;7652;53.584;9.998;2023-06-05T14:42:02;2.57;;;1.87;;
15102;SDS011;7652;53.584;9.998;2023-06-05T14:45:24;4.03;;;2.10;;
15102;SDS011;7652;53.584;9.998;2023-06-05T14:48:46;3.97;;;2.00;;
15102;SDS011;7652;53.584;9.998;2023-06-05T14:52:07;5.27;;;1.90;;
15102;SDS011;7652;53.584;9.998;2023-06-05T14:55:29;3.83;;;1.97;;
15102;SDS011;7652;53.584;9.998;2023-06-05T14:58:52;2.53;;;1.80;;
15102;SDS011;7652;53.584;9.998;2023-06-05T15:02:14;2.47;;;2.00;;
15102;SDS011;7652;53.584;9.998;2023-06-05T15:05:36;2.00;;;1.77;;
15102;SDS011;7652;53.584;9.998;2023-06-05T15:08:58;4.53;;;2.20;;
15102;SDS011;7652;53.584;9.998;2023-06-05T15:12:19;1.73;;;1.63;;
15102;SDS011;7652;53.584;9.998;2023-06-05T15:15:42;2.57;;;1.93;;
15102;SDS011;7652;53.584;9.998;2023-06-05T15:19:03;1.80;;;1.70;;
15102;SDS011;7652;53.584;9.998;2023-06-05T15:22:24;2.37;;;2.10;;
15102;SDS011;7652;53.584;9.998;2023-06-05T15:25:46;4.63;;;2.17;;
15102;SDS011;7652;53.584;9.998;2023-06-05T15:29:08;2.73;;;2.30;;
15102;SDS011;7652;53.584;9.998;2023-06-05T15:32:30;4.33;;;2.40;;
15102;SDS011;7652;53.584;9.998;2023-06-05T15:35:52;6.97;;;3.50;;
15102;SDS011;7652;53.584;9.998;2023-06-05T15:39:13;3.90;;;2.30;;
15102;SDS011;7652;53.584;9.998;2023-06-05T15:42:35;2.23;;;2.03;;
15102;SDS011;7652;53.584;9.998;2023-06-05T15:45:57;3.77;;;1.73;;
15102;SDS011;7652;53.584;9.998;2023-06-05T15:49:20;2.30;;;2.10;;
15102;SDS011;7652;53.584;9.998;2023-06-05T15:52:41;4.70;;;2.03;;
15102;SDS011;7652;53.584;9.998;2023-06-05T15:56:03;2.50;;;2.00;;
15102;SDS011;7652;53.584;9.998;2023-06-05T15:59:24;3.27;;;2.10;;
15102;SDS011;7652;53.584;9.998;2023-06-05T16:02:45;2.03;;;1.90;;
15102;SDS011;7652;53.584;9.998;2023-06-05T16:06:08;2.93;;;2.10;;
15102;SDS011;7652;53.584;9.998;2023-06-05T16:09:30;3.93;;;2.37;;
15102;SDS011;7652;53.584;9.998;2023-06-05T16:12:51;3.30;;;2.17;;
15102;SDS011;7652;53.584;9.998;2023-06-05T16:16:13;2.73;;;1.97;;
15102;SDS011;7652;53.584;9.998;2023-06-05T16:19:34;2.50;;;1.93;;
15102;SDS011;7652;53.584;9.998;2023-06-05T16:22:57;3.30;;;1.97;;
15102;SDS011;7652;53.584;9.998;2023-06-05T16:26:19;3.10;;;2.43;;
15102;SDS011;7652;53.584;9.998;2023-06-05T16:29:40;2.27;;;2.07;;
15102;SDS011;7652;53.584;9.998;2023-06-05T16:33:02;2.60;;;2.13;;
15102;SDS011;7652;53.584;9.998;2023-06-05T16:36:24;3.03;;;1.97;;
15102;SDS011;7652;53.584;9.998;2023-06-05T16:39:46;2.20;;;1.93;;
15102;SDS011;7652;53.584;9.998;2023-06-05T16:43:09;2.60;;;1.77;;
15102;SDS011;7652;53.584;9.998;2023-06-05T16:46:30;7.33;;;2.57;;
15102;SDS011;7652;53.584;9.998;2023-06-05T16:49:52;3.50;;;1.97;;
15102;SDS011;7652;53.584;9.998;2023-06-05T16:53:13;2.50;;;2.03;;
15102;SDS011;7652;53.584;9.998;2023-06-05T16:56:36;2.63;;;2.20;;
15102;SDS011;7652;53.584;9.998;2023-06-05T16:59:58;4.13;;;2.10;;
15102;SDS011;7652;53.584;9.998;2023-06-05T17:03:20;4.73;;;2.70;;
15102;SDS011;7652;53.584;9.998;2023-06-05T17:06:43;3.23;;;2.23;;
15102;SDS011;7652;53.584;9.998;2023-06-05T17:10:06;2.23;;;2.03;;
15102;SDS011;7652;53.584;9.998;2023-06-05T17:13:29;3.10;;;2.30;;
15102;SDS011;7652;53.584;9.998;2023-06-05T17:16:51;4.13;;;2.33;;
15102;SDS011;7652;53.584;9.998;2023-06-05T17:20:12;2.60;;;1.90;;
15102;SDS011;7652;53.584;9.998;2023-06-05T17:23:33;4.53;;;2.33;;
15102;SDS011;7652;53.584;9.998;2023-06-05T17:26:55;2.20;;;2.00;;
15102;SDS011;7652;53.584;9.998;2023-06-05T17:30:18;4.27;;;2.23;;
15102;SDS011;7652;53.584;9.998;2023-06-05T17:33:40;3.13;;;2.40;;
15102;SDS011;7652;53.584;9.998;2023-06-05T17:37:02;2.60;;;2.13;;
15102;SDS011;7652;53.584;9.998;2023-06-05T17:40:24;5.57;;;3.30;;
15102;SDS011;7652;53.584;9.998;2023-06-05T17:43:48;3.93;;;3.07;;
15102;SDS011;7652;53.584;9.998;2023-06-05T17:47:12;5.40;;;3.30;;
15102;SDS011;7652;53.584;9.998;2023-06-05T17:50:34;6.17;;;3.90;;
15102;SDS011;7652;53.584;9.998;2023-06-05T17:53:56;6.00;;;3.03;;
15102;SDS011;7652;53.584;9.998;2023-06-05T17:57:18;5.83;;;2.67;;
15102;SDS011;7652;53.584;9.998;2023-06-05T18:00:39;3.97;;;2.70;;
15102;SDS011;7652;53.584;9.998;2023-06-05T18:04:02;3.57;;;2.37;;
15102;SDS011;7652;53.584;9.998;2023-06-05T18:07:24;3.80;;;2.57;;
15102;SDS011;7652;53.584;9.998;2023-06-05T18:10:46;5.03;;;3.20;;
15102;SDS011;7652;53.584;9.998;2023-06-05T18:14:07;3.50;;;2.90;;
15102;SDS011;7652;53.584;9.998;2023-06-05T18:17:29;5.97;;;2.90;;
15102;SDS011;7652;53.584;9.998;2023-06-05T18:20:53;6.17;;;2.83;;
15102;SDS011;7652;53.584;9.998;2023-06-05T18:24:14;8.80;;;3.60;;
15102;SDS011;7652;53.584;9.998;2023-06-05T18:27:35;4.33;;;2.70;;
15102;SDS011;7652;53.584;9.998;2023-06-05T18:30:57;3.77;;;2.60;;
15102;SDS011;7652;53.584;9.998;2023-06-05T18:34:18;4.47;;;2.70;;
15102;SDS011;7652;53.584;9.998;2023-06-05T18:37:41;5.10;;;2.23;;
15102;SDS011;7652;53.584;9.998;2023-06-05T18:41:03;6.93;;;2.50;;
15102;SDS011;7652;53.584;9.998;2023-06-05T18:44:25;3.23;;;2.27;;
15102;SDS011;7652;53.584;9.998;2023-06-05T18:47:46;3.63;;;2.23;;
15102;SDS011;7652;53.584;9.998;2023-06-05T18:51:08;3.60;;;2.47;;
15102;SDS011;7652;53.584;9.998;2023-06-05T18:54:31;4.23;;;2.30;;
15102;SDS011;7652;53.584;9.998;2023-06-05T18:57:53;4.33;;;2.40;;
15102;SDS011;7652;53.584;9.998;2023-06-05T19:01:14;3.60;;;2.50;;
15102;SDS011;7652;53.584;9.998;2023-06-05T19:04:37;3.83;;;2.20;;
15102;SDS011;7652;53.584;9.998;2023-06-05T19:07:59;3.27;;;2.27;;
15102;SDS011;7652;53.584;9.998;2023-06-05T19:11:26;2.30;;;2.10;;
15102;SDS011;7652;53.584;9.998;2023-06-05T19:14:47;3.50;;;2.43;;
15102;SDS011;7652;53.584;9.998;2023-06-05T19:18:09;3.53;;;2.03;;
15102;SDS011;7652;53.584;9.998;2023-06-05T19:21:30;4.43;;;2.10;;
15102;SDS011;7652;53.584;9.998;2023-06-05T19:24:52;2.67;;;2.10;;
15102;SDS011;7652;53.584;9.998;2023-06-05T19:28:14;2.93;;;2.20;;
15102;SDS011;7652;53.584;9.998;2023-06-05T19:31:36;3.53;;;2.60;;
15102;SDS011;7652;53.584;9.998;2023-06-05T19:34:59;3.33;;;2.20;;
15102;SDS011;7652;53.584;9.998;2023-06-05T19:38:20;5.93;;;3.30;;
15102;SDS011;7652;53.584;9.998;2023-06-05T19:41:42;5.77;;;2.80;;
15102;SDS011;7652;53.584;9.998;2023-06-05T19:45:06;3.40;;;2.53;;
15102;SDS011;7652;53.584;9.998;2023-06-05T19:48:28;3.43;;;2.10;;
15102;SDS011;7652;53.584;9.998;2023-06-05T19:51:50;3.80;;;2.30;;
15102;SDS011;7652;53.584;9.998;2023-06-05T19:55:11;4.83;;;2.90;;
15102;SDS011;7652;53.584;9.998;2023-06-05T19:58:35;4.97;;;2.70;;
15102;SDS011;7652;53.584;9.998;2023-06-05T20:01:58;4.07;;;2.43;;
15102;SDS011;7652;53.584;9.998;2023-06-05T20:05:19;2.90;;;2.07;;
15102;SDS011;7652;53.584;9.998;2023-06-05T20:08:41;3.83;;;2.23;;
15102;SDS011;7652;53.584;9.998;2023-06-05T20:12:03;2.50;;;2.30;;
15102;SDS011;7652;53.584;9.998;2023-06-05T20:15:26;4.33;;;2.63;;
15102;SDS011;7652;53.584;9.998;2023-06-05T20:18:50;5.30;;;2.60;;
15102;SDS011;7652;53.584;9.998;2023-06-05T20:22:12;2.73;;;2.47;;
15102;SDS011;7652;53.584;9.998;2023-06-05T20:25:34;3.83;;;2.57;;
15102;SDS011;7652;53.584;9.998;2023-06-05T20:28:55;2.70;;;2.40;;
15102;SDS011;7652;53.584;9.998;2023-06-05T20:32:17;3.43;;;2.43;;
15102;SDS011;7652;53.584;9.998;2023-06-05T20:35:40;2.83;;;2.27;;
15102;SDS011;7652;53.584;9.998;2023-06-05T20:39:04;3.27;;;2.60;;
15102;SDS011;7652;53.584;9.998;2023-06-05T20:42:26;5.97;;;2.40;;